Time;durP1;ratioP1;P1;durP2;ratioP2;P2;SDS_P1;SDS_P2;PMS_P1;PMS_P2;Temp;Humidity;BMP_temperature;BMP_pressure;BME280_temperature;BME280_humidity;BME280_pressure;Samples;Min_cycle;Max_cycle;Signal;HPM_P1;HPM_P2
2022/06/17 00:02:12;;;;;;;809.42;754.00;;;;;;;18.79;72.00;100869.66;5035233;28;20222;-64
2022/06/17 00:04:41;;;;;;;803.20;747.78;;;;;;;18.76;72.14;100885.78;5011822;28;20693;-64
2022/06/17 00:07:14;;;;;;;805.92;750.45;;;18.40;99.90;;;18.76;72.49;100902.75;5020748;28;20772;-64
2022/06/17 00:09:42;;;;;;;802.03;746.78;;;21.00;99.90;;;18.72;72.60;100905.50;5011056;28;20209;-63
2022/06/17 00:12:14;;;;;;;800.20;744.72;;;18.40;99.90;;;18.72;72.56;100906.38;5001776;28;20240;-63
2022/06/17 00:17:31;;;;;;;789.15;734.22;;;;;;;18.55;73.31;100911.09;5029887;28;20729;-63
2022/06/17 00:20:00;;;;;;;796.75;742.05;;;;;;;18.58;73.64;100923.56;4991819;28;20579;-64
2022/06/17 00:22:28;;;;;;;793.17;738.53;;;18.20;99.90;;;18.54;73.95;100941.47;5003422;28;20218;-63
2022/06/17 00:24:56;;;;;;;801.83;747.08;;;;;;;18.48;74.27;100941.56;5041444;28;20224;-63
2022/06/17 00:27:25;;;;;;;799.95;744.92;;;;;;;18.43;74.66;100952.34;5010836;28;20217;-63
2022/06/17 00:29:53;;;;;;;800.78;746.15;;;;;;;18.36;75.22;100958.72;5031830;28;20210;-63
2022/06/17 00:32:21;;;;;;;801.72;747.33;;;;;;;18.36;75.21;100956.03;5008071;28;20233;-63
2022/06/17 00:34:49;;;;;;;799.75;744.60;;;;;;;18.34;75.56;100955.16;5023074;28;20681;-63
2022/06/17 00:37:23;;;;;;;796.92;742.10;;;18.50;99.90;;;18.31;75.20;100949.84;5031411;28;20217;-64
2022/06/17 00:39:52;;;;;;;793.88;739.05;;;;;;;18.27;75.52;100961.50;5017654;28;20214;-63
2022/06/17 00:42:21;;;;;;;787.50;733.35;;;;;;;18.23;75.97;100963.34;5028934;28;20233;-63
2022/06/17 00:45:02;;;;;;;789.38;734.67;;;17.80;99.90;;;18.19;75.88;100977.66;5006726;28;20222;-64
2022/06/17 00:47:37;;;;;;;789.53;735.22;;;18.00;99.90;;;18.16;76.46;100993.75;5007993;28;20590;-63
2022/06/17 00:50:19;;;;;;;782.65;729.17;;;18.40;99.90;;;18.12;76.63;100991.13;5027922;28;20201;-63
2022/06/17 00:53:32;;;;;;;782.35;728.03;;;18.20;99.90;;;18.04;76.79;100985.00;5023332;28;20230;-63
2022/06/17 00:56:10;;;;;;;770.38;716.38;;;17.80;99.90;;;18.00;77.50;100999.31;5007185;28;20210;-63
2022/06/17 00:58:59;;;;;;;774.85;720.67;;;17.80;99.90;;;18.01;76.54;101007.34;5030467;28;20202;-63
2022/06/17 01:01:37;;;;;;;772.40;716.78;;;17.70;99.90;;;18.14;75.98;101018.78;5011582;28;20241;-63
2022/06/17 01:04:09;;;;;;;765.38;711.08;;;17.70;99.90;;;18.07;76.28;101020.66;5012662;28;20202;-64
2022/06/17 01:06:42;;;;;;;776.33;721.72;;;17.90;99.90;;;17.95;76.83;101010.09;5023046;28;20202;-63
2022/06/17 01:12:14;;;;;;;761.50;707.92;;;17.60;99.90;;;17.92;77.46;101028.84;5018583;28;20226;-63
2022/06/17 01:14:43;;;;;;;763.97;710.00;;;17.60;99.90;;;17.84;77.50;101022.72;5034130;28;20198;-64
2022/06/17 01:17:16;;;;;;;765.42;711.42;;;17.60;99.90;;;17.83;77.68;101028.97;5014972;28;20295;-64
2022/06/17 01:19:57;;;;;;;759.88;706.28;;;17.50;99.90;;;17.79;77.91;101035.25;5014833;28;20213;-64
2022/06/17 01:22:27;;;;;;;761.33;707.33;;;;;;;17.77;77.95;101043.28;5013557;28;20229;-64
2022/06/17 01:25:07;;;;;;;765.63;711.97;;;17.40;99.90;;;17.68;78.31;101040.72;5037078;28;20225;-64
2022/06/17 01:27:49;;;;;;;756.22;702.50;;;17.40;99.90;;;17.65;79.34;101055.88;5035144;28;20206;-64
2022/06/17 01:30:25;;;;;;;757.08;704.05;;;17.50;99.90;;;17.58;79.91;101063.97;5033513;28;20212;-64
2022/06/17 01:33:00;;;;;;;757.03;703.25;;;17.40;99.90;;;17.65;79.50;101074.59;5043979;28;20228;-64
2022/06/17 01:35:36;;;;;;;743.10;689.75;;;17.40;99.90;;;17.62;79.44;101079.97;5034100;28;20216;-64
2022/06/17 01:38:04;;;;;;;742.65;689.30;;;;;;;17.55;79.18;101073.81;5007924;28;20609;-64
2022/06/17 01:40:34;;;;;;;744.65;691.92;;;;;;;17.55;79.40;101084.50;5017916;28;20894;-64
2022/06/17 01:43:08;;;;;;;750.70;697.10;;;17.30;99.90;;;17.57;79.82;101098.75;5026454;28;20230;-64
2022/06/17 01:45:42;;;;;;;747.50;693.92;;;17.20;99.90;;;17.49;79.98;101090.78;5008772;28;20221;-64
2022/06/17 01:48:13;;;;;;;737.30;684.75;;;17.20;99.90;;;17.40;79.98;101092.66;5015789;28;20202;-64
2022/06/17 01:50:43;;;;;;;736.33;682.60;;;17.20;99.90;;;17.44;80.02;101108.66;5043549;28;20198;-64
2022/06/17 01:53:21;;;;;;;738.95;685.42;;;17.10;99.90;;;17.37;80.22;101095.34;5007962;28;20222;-64
2022/06/17 01:55:56;;;;;;;734.40;680.83;;;17.20;99.90;;;17.27;81.30;101105.25;5029611;28;20210;-64
2022/06/17 01:58:35;;;;;;;742.78;688.55;;;17.10;99.90;;;17.22;81.96;101121.31;5041516;28;20205;-64
2022/06/17 02:01:07;;;;;;;733.47;680.20;;;17.00;99.90;;;17.24;82.09;101118.63;5020600;28;20212;-64
2022/06/17 02:03:48;;;;;;;735.17;681.95;;;17.20;99.90;;;17.26;81.56;101128.41;5007466;28;20599;-64
2022/06/17 02:06:34;;;;;;;738.63;685.00;;;17.00;99.90;;;17.16;81.84;101123.13;5011918;28;20220;-64
2022/06/17 02:09:03;;;;;;;726.63;673.70;;;;;;;17.11;81.80;101119.63;5027848;28;20193;-64
2022/06/17 02:11:34;;;;;;;732.92;679.67;;;;;;;17.11;82.13;101133.88;5015834;28;20611;-64
2022/06/17 02:14:09;;;;;;;731.60;678.00;;;;;;;17.04;82.62;101148.16;5018514;28;20209;-64
2022/06/17 02:16:53;;;;;;;720.58;667.75;;;16.80;99.90;;;17.00;82.96;101143.72;5018340;28;20209;-64
2022/06/17 02:19:46;;;;;;;719.75;666.25;;;16.80;99.90;;;16.90;83.43;101153.59;5010603;28;20589;-64
2022/06/17 02:22:26;;;;;;;715.45;663.95;;;16.90;99.90;;;17.00;83.00;101167.78;5036333;28;20228;-64
2022/06/17 02:25:09;;;;;;;718.67;664.97;;;16.60;99.90;;;17.02;82.63;101173.13;5032798;28;20209;-64
2022/06/17 02:27:40;;;;;;;716.30;663.00;;;16.70;99.90;;;16.91;82.99;101166.06;4999594;28;20199;-64
2022/06/17 02:30:10;;;;;;;717.47;664.38;;;16.70;99.90;;;16.90;82.67;101166.94;5048222;28;20205;-64
2022/06/17 02:32:39;;;;;;;717.60;664.05;;;16.70;99.90;;;16.97;82.74;101175.81;5014595;28;20249;-64
2022/06/17 02:35:25;;;;;;;713.25;660.33;;;16.30;99.90;;;17.02;82.93;101195.38;5028606;28;20210;-64
2022/06/17 02:37:54;;;;;;;697.65;645.35;;;16.10;99.90;;;16.86;83.86;101189.19;5029940;28;20220;-64
2022/06/17 02:40:39;;;;;;;710.60;657.60;;;16.90;99.90;;;16.85;83.54;101191.88;5025130;28;20220;-64
2022/06/17 02:43:20;;;;;;;704.85;652.20;;;16.60;99.90;;;16.90;83.75;101215.03;5014315;28;20230;-64
2022/06/17 02:46:20;;;;;;;701.25;648.50;;;17.00;99.90;;;16.73;83.64;101203.50;4991923;28;20689;-64
2022/06/17 02:48:57;;;;;;;691.58;638.40;;;16.70;99.90;;;16.67;83.80;101194.63;5015907;28;20199;-64
2022/06/17 02:51:29;;;;;;;699.53;646.53;;;16.50;99.90;;;16.64;84.10;101204.38;4995043;28;20598;-66
2022/06/17 02:53:59;;;;;;;695.50;643.42;;;16.50;99.90;;;16.74;83.80;101215.97;5008537;28;20255;-67
2022/06/17 02:56:31;;;;;;;694.67;642.00;;;16.40;99.90;;;16.67;83.98;101214.22;5025778;28;20214;-66
2022/06/17 02:59:48;;;;;;;695.30;642.38;;;16.80;99.90;;;16.63;84.89;101221.31;5016197;28;20193;-67
2022/06/17 03:02:37;;;;;;;677.70;625.50;;;16.40;99.90;;;16.66;84.00;101220.44;5016761;28;20245;-66
2022/06/17 03:05:17;;;;;;;680.60;629.25;;;16.30;99.90;;;16.67;84.07;101243.59;5030789;28;20210;-66
2022/06/17 03:07:45;;;;;;;682.60;629.80;;;;;;;16.72;83.59;101249.81;5032840;28;20215;-66
2022/06/17 03:10:29;;;;;;;686.45;633.90;;;16.40;99.90;;;16.70;83.33;101246.25;5000202;28;20667;-66
2022/06/17 03:13:12;;;;;;;687.22;634.45;;;16.50;99.90;;;16.74;82.46;101258.69;5028342;28;20236;-66
2022/06/17 03:15:44;;;;;;;679.15;627.55;;;16.30;99.90;;;16.67;83.49;101251.59;5056369;28;20214;-66
2022/06/17 03:18:13;;;;;;;677.42;625.47;;;;;;;16.69;82.45;101247.16;5029063;28;20222;-66
2022/06/17 03:20:45;;;;;;;683.03;630.20;;;16.30;99.90;;;16.70;82.50;101254.25;5016447;28;20199;-66
2022/06/17 03:23:26;;;;;;;684.08;631.53;;;16.80;99.90;;;16.62;82.99;101254.25;5032123;28;20586;-66
2022/06/17 03:26:18;;;;;;;670.03;618.75;;;16.10;99.90;;;16.59;83.19;101264.06;5031481;28;20296;-66
2022/06/17 03:28:49;;;;;;;671.95;619.92;;;16.20;99.90;;;16.54;84.18;101260.50;5033501;28;20217;-66
2022/06/17 03:31:34;;;;;;;677.88;626.05;;;16.20;99.90;;;16.46;84.02;101271.19;5008309;28;20331;-66
2022/06/17 03:34:11;;;;;;;675.17;622.20;;;16.10;99.90;;;16.47;84.30;101281.00;4993960;28;20657;-66
2022/06/17 03:36:56;;;;;;;671.08;618.72;;;15.80;99.90;;;16.44;84.37;101291.66;4996346;28;20202;-66
2022/06/17 03:39:44;;;;;;;673.15;621.17;;;16.40;99.90;;;16.45;84.40;101298.78;5015953;28;20213;-66
2022/06/17 03:42:16;;;;;;;667.28;615.60;;;;;;;16.52;85.02;101326.38;5004327;28;20225;-67
2022/06/17 03:45:09;;;;;;;660.00;609.05;;;16.10;99.90;;;16.40;84.40;101323.72;4995448;28;20215;-67
2022/06/17 03:47:58;;;;;;;663.83;611.88;;;15.70;99.90;;;16.35;84.70;101320.16;5001769;28;20229;-66
2022/06/17 03:50:35;;;;;;;662.63;610.15;;;16.50;99.90;;;16.38;85.04;101330.84;5030312;28;20217;-66
2022/06/17 03:53:12;;;;;;;670.35;618.95;;;16.00;99.90;;;16.27;85.86;101330.84;5036951;28;20221;-67
2022/06/17 03:55:41;;;;;;;670.30;618.30;;;;;;;16.33;85.56;101345.06;5023581;28;20207;-67
2022/06/17 03:58:16;;;;;;;674.42;622.22;;;16.10;99.90;;;16.25;86.69;101352.19;5037095;28;20221;-67
2022/06/17 04:01:05;;;;;;;668.00;615.55;;;16.00;99.90;;;16.22;86.69;101357.53;5033693;28;20205;-66
2022/06/17 04:03:38;;;;;;;671.65;619.45;;;16.00;99.90;;;16.20;86.84;101359.31;5016461;28;20698;-66
2022/06/17 04:06:18;;;;;;;667.50;615.20;;;16.00;99.90;;;16.21;87.08;101369.09;5012463;28;20218;-66
2022/06/17 04:08:56;;;;;;;664.70;612.65;;;15.90;99.90;;;16.16;87.69;101369.97;5032633;28;20198;-66
2022/06/17 04:11:35;;;;;;;668.88;617.40;;;16.00;99.90;;;16.23;86.92;101383.31;5009051;28;20236;-67
2022/06/17 04:14:13;;;;;;;666.22;613.85;;;15.90;99.90;;;16.27;87.66;101400.25;5018267;28;20776;-67
2022/06/17 04:17:07;;;;;;;671.72;619.13;;;16.00;99.90;;;16.25;86.74;101392.22;5003740;28;20210;-66
2022/06/17 04:19:42;;;;;;;650.47;599.08;;;16.00;99.90;;;16.35;86.51;101406.47;5044231;28;20709;-67
2022/06/17 04:22:26;;;;;;;657.45;606.05;;;16.30;99.90;;;16.47;85.20;101413.59;5013382;28;20222;-67
2022/06/17 04:25:38;;;;;;;655.00;602.80;;;16.60;99.90;;;16.44;85.68;101416.28;5033708;28;20205;-67
2022/06/17 04:28:11;;;;;;;656.25;603.85;;;16.10;99.90;;;16.45;85.57;101420.72;5020102;28;20233;-66
2022/06/17 04:30:46;;;;;;;662.53;609.97;;;16.10;99.90;;;16.38;86.38;101419.81;5016445;28;20658;-67
2022/06/17 04:33:28;;;;;;;658.63;607.05;;;16.10;99.90;;;16.42;86.66;101434.97;4993299;28;20211;-66
2022/06/17 04:36:15;;;;;;;665.08;612.08;;;16.10;99.90;;;16.46;85.85;101441.19;5000351;28;20214;-67
2022/06/17 04:39:16;;;;;;;659.80;607.90;;;16.20;99.90;;;16.47;87.56;101465.22;5010981;28;20211;-66
2022/06/17 04:42:01;;;;;;;647.22;596.03;;;16.10;99.90;;;16.57;85.93;101468.78;5010058;28;20213;-66
2022/06/17 04:44:34;;;;;;;655.60;604.33;;;16.20;99.90;;;16.61;85.96;101476.81;5009244;28;20206;-67
2022/06/17 04:47:11;;;;;;;662.05;610.17;;;16.20;99.90;;;16.64;85.73;101484.81;5013622;28;20230;-67
2022/06/17 04:49:52;;;;;;;658.97;607.45;;;16.30;99.90;;;16.66;86.45;101494.66;5035291;28;20695;-67
2022/06/17 04:52:38;;;;;;;663.03;611.63;;;16.30;99.90;;;16.77;87.15;101511.59;5027552;28;20215;-67
2022/06/17 04:55:44;;;;;;;661.35;609.67;;;19.10;99.90;;;16.85;86.16;101518.72;4956368;28;20240;-66
2022/06/17 04:58:50;;;;;;;653.70;602.17;;;;;;;17.01;85.04;101526.75;5014574;28;20211;-66
2022/06/17 05:01:21;;;;;;;665.97;614.03;;;16.50;99.90;;;17.08;84.63;101520.53;5018537;28;20221;-66
2022/06/17 05:04:02;;;;;;;672.92;620.85;;;16.60;99.90;;;17.19;84.60;101534.78;5042206;28;20225;-66
2022/06/17 05:06:37;;;;;;;680.70;628.30;;;;;;;17.25;83.93;101534.78;5022659;28;20218;-66
2022/06/17 05:09:23;;;;;;;681.58;629.38;;;16.40;99.90;;;17.37;84.30;101548.13;5025673;28;20202;-66
2022/06/17 05:12:14;;;;;;;688.60;636.08;;;16.90;99.90;;;17.46;85.25;101571.28;5014944;28;20237;-66
2022/06/17 05:14:51;;;;;;;679.63;628.53;;;17.00;99.90;;;17.53;84.96;101570.38;5048732;28;20209;-66
2022/06/17 05:17:21;;;;;;;690.40;637.70;;;;;;;17.58;84.94;101565.94;5007703;28;20228;-67
2022/06/17 05:19:50;;;;;;;702.70;649.88;;;;;;;17.66;84.35;101569.50;5003512;28;20214;-66
2022/06/17 05:22:44;;;;;;;713.00;659.63;;;17.10;99.90;;;17.79;83.73;101557.00;4995589;28;20574;-66
2022/06/17 05:25:21;;;;;;;709.47;656.75;;;17.30;99.90;;;17.91;84.22;101563.19;5031905;28;20212;-66
2022/06/17 05:27:50;;;;;;;710.15;657.65;;;17.40;99.90;;;18.03;83.87;101570.28;5022859;28;20229;-66
2022/06/17 05:30:18;;;;;;;725.42;672.42;;;;;;;18.12;85.47;101589.00;5043253;28;20215;-66
2022/06/17 05:32:50;;;;;;;726.30;673.53;;;17.60;99.90;;;18.21;85.00;101589.00;5017251;28;20263;-66
2022/06/17 05:35:22;;;;;;;741.05;687.17;;;17.70;99.90;;;18.11;84.03;101564.91;5027069;28;20213;-66
2022/06/17 05:37:52;;;;;;;748.65;694.58;;;;;;;18.21;82.28;101538.13;5028281;28;20678;-66
2022/06/17 05:40:21;;;;;;;755.55;701.15;;;17.70;99.90;;;18.30;81.71;101533.63;4997521;28;20209;-66
2022/06/17 05:42:52;;;;;;;759.58;704.65;;;;;;;18.32;81.22;101527.34;5013806;28;20230;-67
2022/06/17 05:45:25;;;;;;;755.63;701.88;;;17.90;99.90;;;18.49;80.17;101528.16;5034118;28;20542;-66
2022/06/17 05:48:26;;;;;;;758.20;704.00;;;;;;;18.83;78.56;101533.31;5010896;28;20783;-67
2022/06/17 05:51:11;;;;;;;771.22;716.70;;;18.20;99.90;;;18.73;78.42;101516.41;5024869;28;20196;-67
2022/06/17 05:53:58;;;;;;;769.10;714.83;;;;;;;18.80;78.47;101506.53;5029892;28;20205;-67
2022/06/17 05:56:35;;;;;;;773.25;719.10;;;;;;;19.05;77.82;101520.63;5044389;28;20215;-66
2022/06/17 05:59:03;;;;;;;780.75;725.72;;;;;;;18.98;77.94;101503.72;5011025;28;20670;-66
2022/06/17 06:01:32;;;;;;;787.35;732.53;;;;;;;19.01;78.31;101501.00;5039413;28;20230;-67
2022/06/17 06:04:00;;;;;;;790.33;734.83;;;;;;;19.50;76.74;101519.31;5012121;28;20218;-67
2022/06/17 06:06:29;;;;;;;800.67;745.28;;;;;;;19.12;79.14;101499.09;5005640;28;20592;-66
2022/06/17 06:08:59;;;;;;;799.20;744.22;;;;;;;19.21;80.10;101514.22;5029074;28;20713;-67
2022/06/17 06:11:28;;;;;;;795.13;740.67;;;;;;;19.65;77.24;101513.84;5033218;28;20230;-66
2022/06/17 06:13:57;;;;;;;804.65;749.80;;;;;;;19.74;78.00;101516.41;5007098;28;20206;-67
2022/06/17 06:16:26;;;;;;;806.60;752.13;;;19.00;99.90;;;19.75;77.98;101495.81;5030449;28;20205;-67
2022/06/17 06:18:59;;;;;;;822.13;765.75;;;;;;;19.90;77.81;101498.31;5007769;28;20203;-67
2022/06/17 06:21:28;;;;;;;831.28;774.67;;;;;;;19.62;78.44;101467.34;5028222;28;20226;-66
2022/06/17 06:23:56;;;;;;;833.35;776.80;;;;;;;19.61;77.87;101462.91;5012583;28;20567;-66
2022/06/17 06:26:32;;;;;;;831.65;775.20;;;;;;;19.97;77.61;101483.91;5019827;28;20212;-66
2022/06/17 06:29:23;;;;;;;840.33;783.25;;;;;;;19.72;78.79;101466.34;5034227;28;20670;-66
2022/06/17 06:31:52;;;;;;;856.35;797.92;;;19.60;99.90;;;20.21;77.12;101493.44;5012548;28;20243;-67
2022/06/17 06:34:42;;;;;;;849.72;791.47;;;;;;;20.37;76.95;101488.75;5008949;28;20206;-67
2022/06/17 06:37:14;;;;;;;850.97;794.53;;;;;;;20.36;76.74;101476.22;5011054;28;20207;-67
2022/06/17 06:39:42;;;;;;;854.90;797.97;;;;;;;20.18;74.95;101437.06;5007975;28;20661;-66
2022/06/17 06:42:10;;;;;;;863.33;807.28;;;;;;;20.60;74.44;101450.78;5019717;28;20251;-64
2022/06/17 06:44:59;;;;;;;859.35;802.72;;;;;;;20.35;74.46;101410.84;5038635;28;20210;-64
2022/06/17 06:47:34;;;;;;;869.00;812.70;;;;;;;20.59;74.51;101420.34;5017004;28;20252;-64
2022/06/17 06:50:19;;;;;;;876.88;820.00;;;20.40;99.90;;;20.84;74.92;101447.72;5026204;28;20210;-64
2022/06/17 06:52:47;;;;;;;883.25;824.58;;;;;;;20.58;75.46;101413.19;5011408;28;20229;-64
2022/06/17 06:55:16;;;;;;;889.83;831.70;;;20.70;99.90;;;21.13;75.44;101454.41;5013127;28;20221;-64
2022/06/17 06:57:52;;;;;;;896.35;837.55;;;21.00;99.90;;;21.22;76.46;101465.00;5027315;28;20194;-64
2022/06/17 07:00:34;;;;;;;901.25;842.88;;;21.50;99.90;;;21.34;75.15;101436.09;5019348;28;20205;-64
2022/06/17 07:03:03;;;;;;;908.25;850.13;;;21.60;99.90;;;21.68;74.80;101451.56;5041225;28;20709;-64
2022/06/17 07:05:35;;;;;;;914.13;855.13;;;21.40;99.90;;;21.47;76.32;101433.16;5017168;28;20215;-64
2022/06/17 07:08:06;;;;;;;919.00;859.28;;;21.90;99.90;;;21.83;74.61;101437.75;4990570;28;20222;-64
2022/06/17 07:10:36;;;;;;;922.47;863.55;;;21.80;99.90;;;21.79;73.42;101403.75;5050372;28;20206;-64
2022/06/17 07:13:08;;;;;;;930.55;871.10;;;21.80;99.90;;;21.62;71.54;101349.38;5032465;28;20225;-64
2022/06/17 07:16:14;;;;;;;946.90;887.85;;;22.10;99.90;;;22.42;71.46;101402.34;5061869;28;20556;-63
2022/06/17 07:18:43;;;;;;;937.55;877.58;;;;;;;22.31;70.49;101348.72;5039492;28;20210;-64
2022/06/17 07:21:13;;;;;;;949.78;888.90;;;22.60;99.90;;;22.48;70.16;101340.22;5037705;28;20227;-64
2022/06/17 07:23:44;;;;;;;953.78;893.65;;;22.70;99.90;;;22.43;70.05;101321.47;5006423;28;20210;-64
2022/06/17 07:26:22;;;;;;;957.30;897.10;;;23.30;99.90;;;22.40;69.18;101308.06;5009353;28;20207;-64
2022/06/17 07:28:53;;;;;;;964.55;903.15;;;22.90;99.90;;;23.19;67.73;101323.91;5000429;28;20221;-64
2022/06/17 07:31:22;;;;;;;975.33;913.90;;;23.60;99.90;;;23.61;67.07;101292.09;5022697;28;20230;-67
2022/06/17 07:33:51;;;;;;;981.40;920.67;;;23.60;99.90;;;23.04;68.20;101217.31;4989872;28;20227;-64
2022/06/17 07:42:01;;;;;;;992.33;931.30;;;;;;;23.19;67.22;101175.47;5026310;28;20219;-64
2022/06/17 07:44:30;;;;;;;1001.63;940.00;;;;;;;23.36;68.00;101196.53;5000803;28;20211;-64
2022/06/17 07:46:58;;;;;;;1004.40;942.80;;;;;;;23.52;68.39;101189.75;5005237;28;20218;-64
2022/06/17 07:49:26;;;;;;;1020.15;957.20;;;24.60;99.90;;;23.61;67.12;101193.06;5028636;28;20202;-64
2022/06/17 07:51:54;;;;;;;1024.03;961.22;;;;;;;23.69;65.77;101173.91;5009016;28;20238;-65
2022/06/17 07:54:23;;;;;;;1021.92;958.90;;;;;;;23.41;67.87;101135.22;4989427;28;20223;-64
2022/06/17 07:56:54;;;;;;;1023.35;961.00;;;;;;;23.80;66.47;101155.53;5004155;28;20211;-64
2022/06/17 07:59:23;;;;;;;1027.07;963.13;;;;;;;24.16;66.37;101163.28;5008333;28;20218;-64
2022/06/17 08:01:51;;;;;;;1037.53;973.75;;;24.40;99.90;;;24.22;65.52;101136.03;4987062;28;20235;-64
2022/06/17 08:04:19;;;;;;;1043.55;979.80;;;;;;;24.45;63.37;101119.00;5005130;28;20199;-64
2022/06/17 08:06:51;;;;;;;1051.88;986.05;;;;;;;24.57;63.81;101102.31;4992633;28;20210;-64
2022/06/17 08:09:25;;;;;;;1056.78;992.17;;;26.10;99.90;;;25.57;63.01;101123.59;5023580;28;20199;-65
2022/06/17 08:11:53;;;;;;;1063.90;996.30;;;;;;;24.82;64.88;101021.97;5016970;28;20235;-64
2022/06/17 08:14:21;;;;;;;1075.75;999.90;;;;;;;25.22;64.30;101068.22;5014458;28;20235;-65
2022/06/17 08:16:50;;;;;;;1080.53;999.90;;;;;;;24.28;63.07;100906.06;5018483;28;20203;-65
2022/06/17 08:19:18;;;;;;;1082.25;999.90;;;;;;;24.38;63.54;100929.09;5044057;28;20199;-64
2022/06/17 08:21:46;;;;;;;1077.95;999.90;;;;;;;24.76;63.62;100973.53;5034832;28;20233;-64
2022/06/17 08:24:30;;;;;;;1079.50;999.90;;;;;;;26.61;62.02;101109.09;4993345;28;20222;-64
2022/06/17 08:26:58;;;;;;;1086.57;999.90;;;;;;;25.14;61.96;100898.00;4994979;28;20207;-64
2022/06/17 08:29:28;;;;;;;1099.55;999.90;;;;;;;26.08;61.52;100983.16;5005507;28;20203;-64
2022/06/17 08:35:03;;;;;;;1101.47;999.90;;;;;;;27.28;60.38;101030.72;5000019;28;20234;-64
2022/06/17 08:37:32;;;;;;;1109.97;999.90;;;27.10;99.90;;;25.44;58.74;100739.59;4979695;28;22030;-64
2022/06/17 08:40:04;;;;;;;1106.68;999.90;;;26.90;99.90;;;25.65;60.82;100812.66;5000922;28;20203;-64
2022/06/17 08:42:50;;;;;;;1114.95;999.90;;;;;;;26.12;60.72;100864.63;4993123;28;20227;-64
2022/06/17 08:45:34;;;;;;;1117.90;999.90;;;28.00;99.90;;;27.33;59.49;100959.91;5009329;28;20199;-64
2022/06/17 08:48:05;;;;;;;1127.60;999.90;;;;;;;27.02;59.93;100901.72;5009621;28;20203;-65
2022/06/17 08:50:57;;;;;;;1113.80;999.90;;;27.00;99.90;;;25.01;62.31;100701.97;5014703;28;20695;-64
2022/06/17 08:53:57;;;;;;;1118.82;999.90;;;26.80;99.90;;;26.28;61.53;100845.78;5033902;28;20203;-65
2022/06/17 08:57:00;;;;;;;1121.15;999.90;;;27.30;99.90;;;25.83;60.58;100761.19;5009167;28;20226;-64
2022/06/17 09:00:08;;;;;;;1127.07;999.90;;;27.70;99.90;;;26.48;60.12;100825.81;4966288;28;20222;-64
2022/06/17 09:03:26;;;;;;;1128.38;999.90;;;28.10;99.90;;;26.90;61.29;100872.47;5031021;28;20223;-64
2022/06/17 09:06:13;;;;;;;1128.38;999.90;;;;;;;25.79;59.89;100678.31;4951653;28;20223;-64
2022/06/17 09:09:01;;;;;;;1135.10;999.90;;;27.70;99.80;;;26.14;59.99;100735.31;5003632;28;20274;-64
2022/06/17 09:12:14;;;;;;;1134.47;999.90;;;28.40;99.90;;;27.98;58.66;100893.88;4990782;28;20223;-64
2022/06/17 09:15:21;;;;;;;1140.05;999.90;;;30.00;99.90;;;27.30;59.88;100794.34;4974347;28;20227;-64
2022/06/17 09:18:06;;;;;;;1154.75;999.90;;;30.30;99.90;;;27.90;56.85;100805.56;5019532;28;20207;-65
2022/06/17 09:20:40;;;;;;;1159.63;999.90;;;30.20;97.20;;;27.41;57.81;100741.22;5009061;28;20210;-64
2022/06/17 09:23:21;;;;;;;1155.03;999.90;;;29.80;95.60;;;27.46;60.40;100776.28;4990907;28;20698;-64
2022/06/17 09:25:50;;;;;;;1158.18;999.90;;;;;;;27.37;60.09;100755.06;4983049;28;20207;-64
2022/06/17 09:28:39;;;;;;;1167.53;999.90;;;29.40;95.80;;;27.37;59.97;100742.38;4976327;28;20562;-64
2022/06/17 09:31:32;;;;;;;1169.93;999.90;;;30.00;99.60;;;27.76;60.21;100797.31;4987197;28;20208;-64
2022/06/17 09:34:21;;;;;;;1167.43;999.90;;;30.40;97.40;;;27.95;57.20;100768.09;4994523;28;20202;-64
2022/06/17 09:36:59;;;;;;;842.25;790.35;;;31.00;96.30;;;28.71;56.41;100788.09;5011276;28;20227;-64
2022/06/17 09:39:56;;;;;;;591.95;555.17;;;31.50;95.60;;;28.22;58.03;100732.97;4975890;28;20200;-64
2022/06/17 09:42:42;;;;;;;386.00;361.58;;;30.70;90.20;;;26.98;56.91;100539.13;4974606;28;20222;-64
2022/06/17 09:45:28;;;;;;;400.17;376.25;;;29.40;90.90;;;27.10;57.11;100595.44;4998656;28;20208;-64
2022/06/17 09:48:18;;;;;;;373.00;349.95;;;29.70;92.30;;;27.82;54.58;100647.47;4991662;28;20211;-64
2022/06/17 09:51:28;;;;;;;149.35;140.18;;;30.10;91.40;;;28.02;56.44;100671.63;5005660;28;20211;-64
2022/06/17 09:54:15;;;;;;;163.85;153.18;;;31.10;93.00;;;28.88;54.40;100702.72;4990467;28;20203;-64
2022/06/17 09:57:05;;;;;;;385.15;360.55;;;31.70;90.60;;;28.33;55.44;100610.84;5006419;28;20222;-64
2022/06/17 09:59:49;;;;;;;405.50;379.42;;;31.50;90.50;;;28.25;55.55;100591.41;4988495;28;20205;-64
2022/06/17 10:02:22;;;;;;;375.02;351.90;;;31.60;88.00;;;28.50;53.31;100578.03;4997973;28;20226;-64
2022/06/17 10:04:51;;;;;;;96.82;90.60;;;31.50;80.50;;;27.89;53.29;100462.19;5001706;28;20207;-64
2022/06/17 10:07:47;;;;;;;371.93;347.50;;;31.40;86.70;;;28.56;53.56;100555.00;4990175;28;20771;-64
2022/06/17 10:10:26;;;;;;;261.15;245.07;;;31.40;86.80;;;28.37;54.99;100544.41;5002493;28;20207;-64
2022/06/17 10:13:45;;;;;;;316.27;296.10;;;30.90;80.10;;;27.78;53.27;100406.75;4973915;28;20242;-65
2022/06/17 10:20:23;;;;;;;434.35;406.60;;;31.00;83.60;;;27.41;54.85;100361.00;5003023;28;20206;-64
2022/06/17 10:23:40;;;;;;;581.47;545.33;;;29.90;85.70;;;27.72;55.99;100443.34;4995397;28;20226;-64
2022/06/17 10:26:35;;;;;;;662.78;621.33;;;30.00;87.80;;;28.25;54.98;100488.06;5004711;28;20537;-64
2022/06/17 10:29:13;;;;;;;787.88;739.08;;;28.80;85.40;;;27.34;54.91;100404.91;5004508;28;20578;-64
2022/06/17 10:31:47;;;;;;;354.58;332.60;;;29.80;88.80;;;28.38;52.37;100472.72;4976349;28;20691;-64
2022/06/17 10:34:32;;;;;;;287.33;270.05;;;31.20;87.90;;;29.66;52.85;100599.56;4979624;28;20206;-64
2022/06/17 10:37:04;;;;;;;75.57;70.53;;;32.00;85.20;;;29.87;52.42;100589.94;4986324;28;20226;-65
2022/06/17 10:39:34;;;;;;;18.98;16.50;;;32.00;85.70;;;28.49;53.79;100423.06;4973736;28;20668;-64
2022/06/17 10:42:05;;;;;;;20.98;16.00;;;31.20;81.90;;;28.51;53.80;100416.53;4990368;28;20230;-64
2022/06/17 10:44:33;;;;;;;22.15;15.38;;;30.80;82.10;;;28.06;53.37;100357.81;4979163;28;20203;-64
2022/06/17 10:47:37;;;;;;;20.70;12.05;;;30.00;81.50;;;27.83;53.55;100314.94;4978184;28;20207;-64
2022/06/17 10:50:22;;;;;;;24.77;16.77;;;29.60;81.90;;;29.35;53.27;100489.91;4974882;28;20218;-64
2022/06/17 10:53:02;;;;;;;21.27;10.90;;;30.50;85.40;;;28.71;52.04;100349.06;5003478;28;20234;-64
2022/06/17 10:55:49;;;;;;;21.48;12.40;;;30.90;82.00;;;28.90;52.62;100377.69;5009489;28;20215;-65
2022/06/17 10:58:32;;;;;;;12.85;11.60;;;30.60;81.40;;;29.29;50.79;100393.13;4987078;28;20198;-64
2022/06/17 11:01:15;;;;;;;20.85;15.60;;;31.30;83.30;;;29.65;52.97;100458.84;4993613;28;20210;-64
2022/06/17 11:03:46;;;;;;;21.35;8.05;;;31.50;83.20;;;28.38;51.58;100244.22;4996597;28;20211;-64
2022/06/17 11:06:24;;;;;;;26.08;21.75;;;30.50;77.50;;;29.74;50.14;100395.50;4975298;28;20206;-64
2022/06/17 11:09:01;;;;;;;31.60;19.92;;;30.80;79.30;;;29.58;53.80;100415.66;5011847;28;20206;-64
2022/06/17 11:12:06;;;;;;;23.80;20.02;;;30.70;82.70;;;30.74;52.91;100532.84;4997379;28;20233;-64